Andesborg — PCLC — position and weather

sailwx.info

Track history (hours):
 
Tides and Currents Weather Stations Pressure Air Temp Water Temp Dewpoint Dewpoint Depression Visibility Wind Speed Wind Dir Waves Ship Positions

Andesborg

Last reported at 2014-Nov-18 14:33 UTC. Time now 2014-Nov-23 06:03 UTC.
Position N 37°53' W 023°53'.

Length 143 m; draft 7.9 m.

Type: Ship. MMSI: 246797000.

Date/timePositionNaut miles runAvg speedWind from/ knotsBaromVisibWave heightAir tempDewpointWater temp
2014-Nov-18 14:33N 37°53' W 023°53'1111.4
2014-Nov-18 13:33N 37°54' W 024°07'1211.8
2014-Nov-18 12:33N 37°54' W 024°22'1212.0
2014-Nov-18 11:34N 37°54' W 024°37'1211.5
2014-Nov-18 10:33N 37°53' W 024°52'8 8.5
2014-Nov-18 09:34N 37°45' W 024°53'1313.1
2014-Nov-18 08:34N 37°33' W 024°59'1211.5
2014-Nov-18 07:33N 37°28' W 025°12'1312.8
2014-Nov-18 06:33N 37°28' W 025°28'1211.9
2014-Nov-18 05:33N 37°28' W 025°43'1212.0
2014-Nov-18 04:33N 37°30' W 025°58'1211.9
2014-Nov-18 03:33N 37°31' W 026°13'1211.9
2014-Nov-18 02:33N 37°32' W 026°28'1212.3
2014-Nov-18 01:34N 37°34' W 026°43'1212.1
2014-Nov-18 00:33N 37°35' W 026°58'8 7.9
2014-Nov-17 23:33N 37°32' W 027°08'9 8.6
2014-Nov-17 22:33N 37°24' W 027°08'8 8.2
2014-Nov-17 21:33N 37°15' W 027°08'9 8.5
2014-Nov-17 20:31N 37°07' W 027°09'11310.8
2014-Nov-17 10:04N 36°16' W 029°15'713.7
2014-Nov-17 09:34N 36°15' W 029°23'15213.5
2014-Nov-16 22:17N 36°12' W 032°32'  
2014-Nov-09 23:21N 17°35' W 063°01'3210.5
2014-Nov-09 20:16N 17°10' W 063°23'  
Track history (hours):
 
Tides and Currents Weather Stations Pressure Air Temp Water Temp Dewpoint Dewpoint Depression Visibility Wind Speed Wind Dir Waves Ship Positions

Andesborg

Last reported at 2014-Nov-18 14:33 UTC. Time now 2014-Nov-23 06:03 UTC.
Position N 37°53' W 023°53'.

Length 143 m; draft 7.9 m.

Type: Ship. MMSI: 246797000.

Date/timePositionNaut miles runAvg speedWind from/ knotsBaromVisibWave heightAir tempDewpointWater temp
2014-Nov-18 14:33N 37°53' W 023°53'1111.4
2014-Nov-18 13:33N 37°54' W 024°07'1211.8
2014-Nov-18 12:33N 37°54' W 024°22'1212.0
2014-Nov-18 11:34N 37°54' W 024°37'1211.5
2014-Nov-18 10:33N 37°53' W 024°52'8 8.5
2014-Nov-18 09:34N 37°45' W 024°53'1313.1
2014-Nov-18 08:34N 37°33' W 024°59'1211.5
2014-Nov-18 07:33N 37°28' W 025°12'1312.8
2014-Nov-18 06:33N 37°28' W 025°28'1211.9
2014-Nov-18 05:33N 37°28' W 025°43'1212.0
2014-Nov-18 04:33N 37°30' W 025°58'1211.9
2014-Nov-18 03:33N 37°31' W 026°13'1211.9
2014-Nov-18 02:33N 37°32' W 026°28'1212.3
2014-Nov-18 01:34N 37°34' W 026°43'1212.1
2014-Nov-18 00:33N 37°35' W 026°58'8 7.9
2014-Nov-17 23:33N 37°32' W 027°08'9 8.6
2014-Nov-17 22:33N 37°24' W 027°08'8 8.2
2014-Nov-17 21:33N 37°15' W 027°08'9 8.5
2014-Nov-17 20:31N 37°07' W 027°09'11310.8
2014-Nov-17 10:04N 36°16' W 029°15'713.7
2014-Nov-17 09:34N 36°15' W 029°23'15213.5
2014-Nov-16 22:17N 36°12' W 032°32'  
2014-Nov-09 23:21N 17°35' W 063°01'3210.5
2014-Nov-09 20:16N 17°10' W 063°23'  

Dump ship's entire track history